createdAt,value
2022-09-14T00:01:30.123Z,69.30
2022-09-14T00:04:00.487Z,69.43
2022-09-14T00:06:31.271Z,72.46
2022-09-14T00:09:01.233Z,72.72
2022-09-14T00:11:33.460Z,72.07
2022-09-14T00:14:02.796Z,75.55
2022-09-14T00:16:33.194Z,72.68
2022-09-14T00:19:06.157Z,71.43
2022-09-14T00:21:36.556Z,71.10
2022-09-14T00:24:05.242Z,71.43
2022-09-14T00:26:33.075Z,71.53
2022-09-14T00:29:04.397Z,73.29
2022-09-14T00:31:33.373Z,74.57
2022-09-14T00:34:02.594Z,76.63
2022-09-14T00:36:31.640Z,75.56
2022-09-14T00:39:01.694Z,74.62
2022-09-14T00:41:33.140Z,72.82
2022-09-14T00:44:04.744Z,71.84
2022-09-14T00:46:36.435Z,71.18
2022-09-14T00:49:07.888Z,71.06
2022-09-14T00:51:42.883Z,71.99
2022-09-14T00:54:12.329Z,71.56
2022-09-14T00:56:42.643Z,71.02
2022-09-14T00:59:14.360Z,71.40
2022-09-14T01:01:42.400Z,71.60
2022-09-14T01:04:12.774Z,71.97
2022-09-14T01:06:50.020Z,74.89
2022-09-14T01:09:29.214Z,78.99
2022-09-14T01:12:18.981Z,77.82
2022-09-14T01:15:04.744Z,74.27
2022-09-14T01:17:43.227Z,75.57
2022-09-14T01:20:24.729Z,75.28
2022-09-14T01:23:03.804Z,74.69
2022-09-14T01:26:06.431Z,74.54
2022-09-14T01:28:42.592Z,73.42
2022-09-14T01:31:26.847Z,76.32
2022-09-14T01:34:01.902Z,76.92
2022-09-14T01:36:33.478Z,77.45
2022-09-14T01:39:03.260Z,81.67
2022-09-14T01:41:33.374Z,83.88
2022-09-14T01:44:09.383Z,86.53
2022-09-14T01:46:41.752Z,87.22
2022-09-14T01:49:15.956Z,93.41
2022-09-14T01:51:48.006Z,97.08
2022-09-14T01:54:22.659Z,98.41
2022-09-14T01:56:54.701Z,98.08
2022-09-14T01:59:26.500Z,97.38
2022-09-14T02:02:00.726Z,96.73
2022-09-14T02:04:40.222Z,95.22
2022-09-14T02:07:08.306Z,95.38
2022-09-14T02:09:36.203Z,94.97
2022-09-14T02:12:06.933Z,94.17
2022-09-14T02:14:36.167Z,92.85
2022-09-14T02:17:04.262Z,90.68
2022-09-14T02:19:40.971Z,89.54
2022-09-14T02:22:08.943Z,89.42
2022-09-14T02:24:37.852Z,88.23
2022-09-14T02:27:07.218Z,88.03
2022-09-14T02:29:36.814Z,90.51
2022-09-14T02:32:16.742Z,89.28
2022-09-14T02:34:55.055Z,88.74
2022-09-14T02:37:31.656Z,88.77
2022-09-14T02:40:07.037Z,88.23
2022-09-14T02:42:42.005Z,87.85
2022-09-14T02:45:22.552Z,87.42
2022-09-14T02:47:58.067Z,88.67
2022-09-14T02:50:33.725Z,88.57
2022-09-14T02:53:08.873Z,88.12
2022-09-14T02:55:40.808Z,88.20
2022-09-14T02:58:10.642Z,87.48
2022-09-14T03:00:41.715Z,87.02
2022-09-14T03:03:11.756Z,86.79
2022-09-14T03:05:39.825Z,87.76
2022-09-14T03:08:08.688Z,88.73
2022-09-14T03:10:36.434Z,88.08
2022-09-14T03:13:04.603Z,89.40
2022-09-14T03:15:32.438Z,92.56
2022-09-14T03:18:01.521Z,90.69
2022-09-14T03:20:32.753Z,89.14
2022-09-14T03:23:04.807Z,88.40
2022-09-14T03:25:38.706Z,88.29
2022-09-14T03:28:09.714Z,88.03
2022-09-14T03:30:37.705Z,87.24
2022-09-14T03:55:56.913Z,99.38
2022-09-14T03:58:25.033Z,100.00
2022-09-14T04:00:52.829Z,100.00
2022-09-14T04:03:21.082Z,100.00
2022-09-14T04:05:55.992Z,100.00
2022-09-14T04:08:23.743Z,100.00
2022-09-14T04:10:51.400Z,100.00
2022-09-14T04:13:20.491Z,100.00
2022-09-14T04:15:57.888Z,100.00
2022-09-14T04:18:28.784Z,100.00
2022-09-14T04:20:58.121Z,99.02
2022-09-14T04:23:28.722Z,97.89
2022-09-14T04:25:58.502Z,96.40
2022-09-14T04:28:28.489Z,96.82
2022-09-14T04:30:58.186Z,99.43
2022-09-14T04:35:47.159Z,100.00
2022-09-14T04:38:14.847Z,100.00
2022-09-14T04:40:42.929Z,100.00
2022-09-14T04:43:10.618Z,99.12
2022-09-14T04:45:38.521Z,97.45
2022-09-14T04:48:06.196Z,96.89
2022-09-14T04:50:34.177Z,96.33
2022-09-14T04:53:04.757Z,95.17
2022-09-14T04:55:32.800Z,95.59
2022-09-14T04:58:03.091Z,95.29
2022-09-14T05:00:30.958Z,94.12
2022-09-14T05:02:58.786Z,94.00
2022-09-14T05:05:26.612Z,93.49
2022-09-14T05:07:54.299Z,93.52
2022-09-14T05:10:23.905Z,93.84
2022-09-14T05:12:51.573Z,93.18
2022-09-14T05:15:19.285Z,95.29
2022-09-14T05:17:47.008Z,100.00
2022-09-14T05:20:14.798Z,100.00
2022-09-14T05:22:42.522Z,100.00
2022-09-14T05:25:13.128Z,100.00
2022-09-14T05:27:42.192Z,100.00
2022-09-14T05:30:11.238Z,100.00
2022-09-14T05:32:38.952Z,100.00
2022-09-14T05:35:07.398Z,98.82
2022-09-14T05:37:35.154Z,97.37
2022-09-14T05:40:06.045Z,96.02
2022-09-14T05:42:33.784Z,94.88
2022-09-14T05:45:05.964Z,94.03
2022-09-14T05:47:39.008Z,93.03
2022-09-14T05:50:08.793Z,91.94
2022-09-14T05:52:36.502Z,91.51
2022-09-14T05:55:04.795Z,91.05
2022-09-14T05:57:32.537Z,90.68
2022-09-14T06:00:00.248Z,90.62
2022-09-14T06:02:29.363Z,90.05
2022-09-14T06:04:57.164Z,89.53
2022-09-14T06:07:24.912Z,89.22
2022-09-14T06:09:52.664Z,92.09
2022-09-14T06:12:20.414Z,91.62
2022-09-14T06:14:48.168Z,90.18
2022-09-14T06:17:15.826Z,90.09
2022-09-14T06:19:44.853Z,90.43
2022-09-14T06:22:12.552Z,91.02
2022-09-14T06:24:40.203Z,89.94
2022-09-14T06:27:08.999Z,90.94
2022-09-14T06:29:36.826Z,90.40
2022-09-14T06:32:04.782Z,89.80
2022-09-14T06:34:32.503Z,88.80
2022-09-14T06:37:02.477Z,88.82
2022-09-14T06:39:30.262Z,89.56
2022-09-14T06:41:58.020Z,89.37
2022-09-14T06:44:29.561Z,89.52
2022-09-14T06:46:57.489Z,88.76
2022-09-14T06:49:25.208Z,89.23
2022-09-14T06:51:55.260Z,90.72
2022-09-14T06:54:25.243Z,91.35
2022-09-14T06:56:55.705Z,91.05
2022-09-14T06:59:23.495Z,92.36
2022-09-14T07:01:51.234Z,94.18
2022-09-14T07:04:19.273Z,93.70
2022-09-14T07:06:49.042Z,93.77
2022-09-14T07:09:18.454Z,91.85
2022-09-14T07:11:47.875Z,92.39
2022-09-14T07:14:16.834Z,90.85
2022-09-14T07:16:44.571Z,90.89
2022-09-14T07:19:15.609Z,89.79
2022-09-14T07:21:43.742Z,92.31
2022-09-14T07:24:12.825Z,92.30
2022-09-14T07:26:42.282Z,90.68
2022-09-14T07:29:13.577Z,92.36
2022-09-14T07:31:43.400Z,90.29
2022-09-14T07:34:12.523Z,90.26
2022-09-14T07:36:40.783Z,90.85
2022-09-14T07:39:13.987Z,87.90
2022-09-14T07:41:43.302Z,88.54
2022-09-14T07:44:15.796Z,89.50
2022-09-14T07:46:45.209Z,89.02
2022-09-14T07:49:13.897Z,87.57
2022-09-14T07:51:42.186Z,85.53
2022-09-14T07:54:14.036Z,85.46
2022-09-14T07:56:43.422Z,85.06
2022-09-14T08:02:07.446Z,84.13
2022-09-14T08:04:35.968Z,83.68
2022-09-14T08:07:04.121Z,80.32
2022-09-14T08:09:32.385Z,82.51
2022-09-14T08:12:00.567Z,84.68
2022-09-14T08:14:29.655Z,83.79
2022-09-14T08:16:57.449Z,80.97
2022-09-14T08:19:26.422Z,82.38
2022-09-14T08:21:54.070Z,82.55
2022-09-14T08:24:22.998Z,81.36
2022-09-14T08:26:50.979Z,79.71
2022-09-14T08:29:20.415Z,81.09
2022-09-14T08:31:51.822Z,80.44
2022-09-14T08:34:20.860Z,80.02
2022-09-14T08:36:49.034Z,78.69
2022-09-14T08:39:17.983Z,78.27
2022-09-14T08:41:52.475Z,77.67
2022-09-14T08:44:25.753Z,77.84
2022-09-14T08:47:01.791Z,75.97
2022-09-14T08:49:39.862Z,75.76
2022-09-14T08:52:14.338Z,75.89
2022-09-14T08:54:42.079Z,77.26
2022-09-14T08:57:17.672Z,75.18
2022-09-14T08:59:53.048Z,75.98
2022-09-14T09:02:37.349Z,76.07
2022-09-14T09:05:21.549Z,73.18
2022-09-14T09:07:55.092Z,74.52
2022-09-14T09:10:23.947Z,70.67
2022-09-14T09:12:55.310Z,70.54
2022-09-14T09:15:26.082Z,70.22
2022-09-14T09:17:59.831Z,67.46
2022-09-14T09:20:31.036Z,66.95
2022-09-14T09:23:11.503Z,69.10
2022-09-14T09:25:52.321Z,65.17
2022-09-14T09:28:21.968Z,66.02
2022-09-14T09:30:49.680Z,63.59
2022-09-14T09:33:22.700Z,63.07
2022-09-14T09:36:14.721Z,62.83
2022-09-14T09:38:42.856Z,63.39
2022-09-14T09:41:17.033Z,64.12
2022-09-14T09:44:00.172Z,62.61
2022-09-14T09:46:29.418Z,65.41
2022-09-14T09:49:03.103Z,65.76
2022-09-14T09:51:33.100Z,63.06
2022-09-14T09:54:09.478Z,64.37
2022-09-14T09:56:41.038Z,63.03
2022-09-14T09:59:24.568Z,61.76
2022-09-14T10:01:55.519Z,59.54
2022-09-14T10:04:28.713Z,60.58
2022-09-14T10:06:57.693Z,60.25
2022-09-14T10:09:28.130Z,60.41
2022-09-14T10:12:00.434Z,61.82
2022-09-14T10:14:31.303Z,60.30
2022-09-14T10:17:07.483Z,61.58
2022-09-14T10:19:37.666Z,59.59
2022-09-14T10:22:19.227Z,57.58
2022-09-14T10:24:58.105Z,57.13
2022-09-14T10:27:43.308Z,57.44
2022-09-14T10:30:15.473Z,58.03
2022-09-14T10:32:49.999Z,57.37
2022-09-14T10:35:20.895Z,57.51
2022-09-14T10:38:01.836Z,58.16
2022-09-14T10:40:36.802Z,58.60
2022-09-14T10:43:17.779Z,57.72
2022-09-14T10:45:52.726Z,56.95
2022-09-14T10:48:43.558Z,56.34
2022-09-14T10:51:30.119Z,57.08
2022-09-14T10:54:06.266Z,56.82
2022-09-14T10:56:45.984Z,56.99
2022-09-14T10:59:29.073Z,57.42
2022-09-14T11:02:19.624Z,58.27
2022-09-14T11:05:00.517Z,55.00
2022-09-14T11:07:38.184Z,55.24
2022-09-14T11:10:18.240Z,54.41
2022-09-14T11:12:56.728Z,53.01
2022-09-14T11:15:30.935Z,52.89
2022-09-14T11:18:15.544Z,55.10
2022-09-14T11:20:56.650Z,52.73
2022-09-14T11:23:39.703Z,54.02
2022-09-14T11:26:12.415Z,53.67
2022-09-14T11:28:45.227Z,54.80
2022-09-14T11:31:18.287Z,53.10
2022-09-14T11:33:50.227Z,51.90
2022-09-14T11:36:22.942Z,55.11
2022-09-14T11:38:57.771Z,54.17
2022-09-14T11:41:32.229Z,51.66
2022-09-14T11:44:04.729Z,51.64
2022-09-14T11:46:37.547Z,51.36
2022-09-14T11:49:15.190Z,51.22
2022-09-14T11:51:50.161Z,51.25
2022-09-14T11:54:21.443Z,52.15
2022-09-14T11:56:51.046Z,52.66
2022-09-14T11:59:50.562Z,52.72
2022-09-14T12:02:49.145Z,54.14
2022-09-14T12:05:35.593Z,52.87
2022-09-14T12:08:27.222Z,52.36
2022-09-14T12:11:19.100Z,53.78
2022-09-14T12:13:47.546Z,55.05
2022-09-14T12:16:15.470Z,54.05
2022-09-14T12:18:47.117Z,53.58
2022-09-14T12:21:25.620Z,55.73
2022-09-14T12:23:57.681Z,53.97
2022-09-14T12:26:31.315Z,54.04
2022-09-14T12:29:06.126Z,53.50
2022-09-14T12:32:25.265Z,55.33
2022-09-14T12:35:26.236Z,55.46
2022-09-14T12:37:54.012Z,56.98
2022-09-14T12:40:38.382Z,56.43
2022-09-14T12:43:50.923Z,55.31
2022-09-14T12:46:40.807Z,56.60
2022-09-14T12:49:30.374Z,58.83
2022-09-14T12:52:09.926Z,61.07
2022-09-14T12:54:56.711Z,65.72
2022-09-14T12:57:35.613Z,69.75
2022-09-14T13:00:13.751Z,72.20
2022-09-14T13:03:05.832Z,73.06
2022-09-14T13:05:35.746Z,76.52
2022-09-14T13:08:11.020Z,77.16
2022-09-14T13:10:45.869Z,77.94
2022-09-14T13:13:18.543Z,79.73
2022-09-14T13:15:53.282Z,77.51
2022-09-14T13:18:34.186Z,77.50
2022-09-14T13:21:18.137Z,78.02
2022-09-14T13:23:48.504Z,79.78
2022-09-14T13:26:20.423Z,81.99
2022-09-14T13:28:50.655Z,82.22
2022-09-14T13:31:23.436Z,82.85
2022-09-14T13:33:54.098Z,83.21
2022-09-14T13:36:25.871Z,81.01
2022-09-14T13:38:54.562Z,78.63
2022-09-14T13:41:24.142Z,77.31
2022-09-14T13:43:54.765Z,76.35
2022-09-14T13:46:23.972Z,77.51
2022-09-14T13:48:53.479Z,78.12
2022-09-14T13:51:27.433Z,78.23
2022-09-14T13:53:57.439Z,78.15
2022-09-14T13:56:30.900Z,78.72
2022-09-14T13:59:18.836Z,79.44
2022-09-14T14:01:57.269Z,80.28
2022-09-14T14:04:33.559Z,80.02
2022-09-14T14:07:18.964Z,76.53
2022-09-14T14:09:50.770Z,76.19
2022-09-14T14:12:25.447Z,77.19
2022-09-14T14:15:38.272Z,77.89
2022-09-14T14:18:31.524Z,78.41
2022-09-14T14:21:07.399Z,78.90
2022-09-14T14:23:56.417Z,76.30
2022-09-14T14:26:27.884Z,76.68
2022-09-14T14:28:55.964Z,77.46
2022-09-14T14:31:26.269Z,79.29
2022-09-14T14:33:55.541Z,78.48
2022-09-14T14:36:23.340Z,78.89
2022-09-14T14:38:51.058Z,81.55
2022-09-14T14:41:22.429Z,81.75
2022-09-14T14:43:50.912Z,82.25
2022-09-14T14:46:18.841Z,84.64
2022-09-14T14:48:47.907Z,82.95
2022-09-14T14:51:15.954Z,83.43
2022-09-14T14:53:44.671Z,85.65
2022-09-14T14:56:13.644Z,83.65
2022-09-14T14:58:45.418Z,84.52
2022-09-14T15:01:13.518Z,83.68
2022-09-14T15:03:44.383Z,84.11
2022-09-14T15:06:16.059Z,83.86
2022-09-14T15:08:45.950Z,83.02
2022-09-14T15:11:18.775Z,83.08
2022-09-14T15:13:46.752Z,81.78
2022-09-14T15:16:15.504Z,80.73
2022-09-14T15:18:43.600Z,82.50
2022-09-14T15:21:11.698Z,83.33
2022-09-14T15:23:40.886Z,81.99
2022-09-14T15:26:09.148Z,80.88
2022-09-14T15:28:38.583Z,80.14
2022-09-14T15:31:07.971Z,79.59
2022-09-14T15:33:35.897Z,80.69
2022-09-14T15:36:04.227Z,78.34
2022-09-14T15:38:31.947Z,80.06
2022-09-14T15:41:00.993Z,79.35
2022-09-14T15:43:28.781Z,79.94
2022-09-14T15:45:56.649Z,80.59
2022-09-14T15:48:24.415Z,79.69
2022-09-14T15:50:52.108Z,78.92
2022-09-14T15:53:20.014Z,78.27
2022-09-14T15:55:48.225Z,78.69
2022-09-14T15:58:17.301Z,78.04
2022-09-14T16:00:45.419Z,77.80
2022-09-14T16:03:13.227Z,77.93
2022-09-14T16:05:41.370Z,78.59
2022-09-14T16:08:09.189Z,78.21
2022-09-14T16:10:37.021Z,77.93
2022-09-14T16:13:05.594Z,80.02
2022-09-14T16:15:34.674Z,80.91
2022-09-14T16:18:02.780Z,79.31
2022-09-14T16:20:30.423Z,79.15
2022-09-14T16:22:58.159Z,78.83
2022-09-14T16:25:28.212Z,78.06
2022-09-14T16:27:55.902Z,78.17
2022-09-14T16:30:23.782Z,78.26
2022-09-14T16:32:52.978Z,79.70
2022-09-14T16:35:20.706Z,78.38
2022-09-14T16:37:48.611Z,79.09
2022-09-14T16:40:17.570Z,78.66
2022-09-14T16:42:46.873Z,79.93
2022-09-14T16:45:14.774Z,78.75
2022-09-14T16:47:42.435Z,78.58
2022-09-14T16:50:13.572Z,78.27
2022-09-14T16:52:41.330Z,77.47
2022-09-14T16:55:09.392Z,76.89
2022-09-14T16:57:37.353Z,77.08
2022-09-14T17:00:05.911Z,76.72
2022-09-14T17:02:33.777Z,76.75
2022-09-14T17:05:01.542Z,76.81
2022-09-14T17:07:30.649Z,76.39
2022-09-14T17:09:58.364Z,76.84
2022-09-14T17:12:26.423Z,76.67
2022-09-14T17:14:54.146Z,77.52
2022-09-14T17:17:21.900Z,78.08
2022-09-14T17:19:49.612Z,77.83
2022-09-14T17:22:17.272Z,77.75
2022-09-14T17:24:46.397Z,77.74
2022-09-14T17:27:14.103Z,78.12
2022-09-14T17:29:42.416Z,79.16
2022-09-14T17:32:14.671Z,80.83
2022-09-14T17:34:44.798Z,80.60
2022-09-14T17:37:12.527Z,79.68
2022-09-14T17:39:40.310Z,79.55
2022-09-14T17:42:09.398Z,79.64
2022-09-14T17:44:37.260Z,81.53
2022-09-14T17:47:05.583Z,81.51
2022-09-14T17:49:33.358Z,81.32
2022-09-14T17:52:01.954Z,80.48
2022-09-14T17:54:29.857Z,81.47
2022-09-14T17:56:57.747Z,83.14
2022-09-14T17:59:29.967Z,82.36
2022-09-14T18:01:57.955Z,82.43
2022-09-14T18:04:25.635Z,82.72
2022-09-14T18:06:53.382Z,82.48
2022-09-14T18:09:24.076Z,82.27
2022-09-14T18:11:52.513Z,81.92
2022-09-14T18:14:20.243Z,80.81
2022-09-14T18:16:51.682Z,80.32
2022-09-14T18:19:19.590Z,80.63
2022-09-14T18:21:52.139Z,79.95
2022-09-14T18:24:20.783Z,79.84
2022-09-14T18:26:48.716Z,79.38
2022-09-14T18:29:18.345Z,80.53
2022-09-14T18:31:46.122Z,81.35
2022-09-14T18:34:15.343Z,81.24
2022-09-14T18:36:43.087Z,81.95
2022-09-14T18:39:13.829Z,81.69
2022-09-14T18:41:41.780Z,82.25
2022-09-14T18:44:10.844Z,81.92
2022-09-14T18:46:38.931Z,82.38
2022-09-14T18:49:06.661Z,81.03
2022-09-14T18:51:35.758Z,79.68
2022-09-14T18:54:06.052Z,81.27
2022-09-14T18:56:35.403Z,80.52
2022-09-14T18:59:04.341Z,80.57
2022-09-14T19:01:32.395Z,81.12
2022-09-14T19:04:00.335Z,79.76
2022-09-14T19:06:28.036Z,80.61
2022-09-14T19:08:58.380Z,79.90
2022-09-14T19:11:28.000Z,79.26
2022-09-14T19:13:57.031Z,79.74
2022-09-14T19:16:24.900Z,79.11
2022-09-14T19:18:52.654Z,77.75
2022-09-14T19:21:23.987Z,77.08
2022-09-14T19:24:00.214Z,76.54
2022-09-14T19:26:30.702Z,76.98
2022-09-14T19:29:00.836Z,76.89
2022-09-14T19:31:30.560Z,76.82
2022-09-14T19:33:58.572Z,77.14
2022-09-14T19:36:27.277Z,76.17
2022-09-14T19:38:57.777Z,77.02
2022-09-14T19:41:27.674Z,77.15
2022-09-14T19:43:55.335Z,78.08
2022-09-14T19:46:24.250Z,77.94
2022-09-14T19:48:53.193Z,77.85
2022-09-14T19:51:22.713Z,77.56
2022-09-14T19:53:51.726Z,77.46
2022-09-14T19:56:23.095Z,77.45
2022-09-14T19:58:54.777Z,76.93
2022-09-14T20:01:25.466Z,77.66
2022-09-14T20:03:53.820Z,77.46
2022-09-14T20:06:23.616Z,77.80
2022-09-14T20:08:52.754Z,79.09
2022-09-14T20:11:24.438Z,81.12
2022-09-14T20:13:54.447Z,80.81
2022-09-14T20:16:24.132Z,81.12
2022-09-14T20:18:52.943Z,80.12
2022-09-14T20:21:23.058Z,79.67
2022-09-14T20:24:16.041Z,78.83
2022-09-14T20:26:46.626Z,78.98
2022-09-14T20:29:15.439Z,79.01
2022-09-14T20:31:45.722Z,79.76
2022-09-14T20:34:13.809Z,79.43
2022-09-14T20:36:41.498Z,79.62
2022-09-14T20:39:09.956Z,78.93
2022-09-14T20:41:37.731Z,78.93
2022-09-14T20:44:09.804Z,79.76
2022-09-14T20:46:41.659Z,79.69
2022-09-14T20:49:11.887Z,80.19
2022-09-14T20:51:40.558Z,79.57
2022-09-14T20:54:13.830Z,80.06
2022-09-14T20:56:42.561Z,82.84
2022-09-14T20:59:14.425Z,81.53
2022-09-14T21:01:43.936Z,79.85
2022-09-14T21:04:14.850Z,79.22
2022-09-14T21:06:45.281Z,78.85
2022-09-14T21:09:14.356Z,78.58
2022-09-14T21:11:45.592Z,77.43
2022-09-14T21:14:15.515Z,78.99
2022-09-14T21:16:45.970Z,79.79
2022-09-14T21:19:16.047Z,80.05
2022-09-14T21:21:44.299Z,81.55
2022-09-14T21:24:15.641Z,82.11
2022-09-14T21:26:46.114Z,79.93
2022-09-14T21:29:20.114Z,79.13
2022-09-14T21:31:48.662Z,79.27
2022-09-14T21:34:16.749Z,80.65
2022-09-14T21:36:47.056Z,80.61
2022-09-14T21:39:16.407Z,80.13
2022-09-14T21:41:45.723Z,79.86
2022-09-14T21:44:15.002Z,79.96
2022-09-14T21:46:43.151Z,80.25
2022-09-14T21:49:15.356Z,79.55
2022-09-14T21:51:44.345Z,81.32
2022-09-14T21:54:13.931Z,81.29
2022-09-14T21:56:44.714Z,81.94
2022-09-14T21:59:17.037Z,81.48
2022-09-14T22:01:45.051Z,82.87
2022-09-14T22:04:16.606Z,85.19
2022-09-14T22:06:45.586Z,85.12
2022-09-14T22:09:14.364Z,86.51
2022-09-14T22:11:42.164Z,85.09
2022-09-14T22:14:13.082Z,89.05
2022-09-14T22:16:43.109Z,89.38
2022-09-14T22:19:16.433Z,93.79
2022-09-14T22:21:44.707Z,94.75
2022-09-14T22:24:15.062Z,94.45
2022-09-14T22:26:44.448Z,94.57
2022-09-14T22:29:13.064Z,92.47
2022-09-14T22:31:44.477Z,89.04
2022-09-14T22:34:13.234Z,88.40
2022-09-14T22:36:41.359Z,89.82
2022-09-14T22:39:10.026Z,88.09
2022-09-14T22:41:38.502Z,85.70
2022-09-14T22:44:06.852Z,84.64
2022-09-14T22:46:36.812Z,85.54
2022-09-14T22:49:05.997Z,84.77
2022-09-14T22:51:33.723Z,84.17
2022-09-14T22:54:01.972Z,83.89
2022-09-14T22:56:32.167Z,84.27
2022-09-14T22:59:01.107Z,86.29
2022-09-14T23:01:36.710Z,84.80
2022-09-14T23:04:07.596Z,83.89
2022-09-14T23:06:38.002Z,83.53
2022-09-14T23:09:09.061Z,83.23
2022-09-14T23:11:37.635Z,83.03
2022-09-14T23:14:05.666Z,83.61
2022-09-14T23:16:33.621Z,83.42
2022-09-14T23:19:07.667Z,85.14
2022-09-14T23:21:36.254Z,86.59
2022-09-14T23:24:07.057Z,86.24
2022-09-14T23:26:34.939Z,86.31
2022-09-14T23:29:05.143Z,85.75
2022-09-14T23:31:33.451Z,85.58
2022-09-14T23:34:02.959Z,86.20
2022-09-14T23:36:32.673Z,86.44
2022-09-14T23:39:00.675Z,86.02
2022-09-14T23:41:29.388Z,86.14
2022-09-14T23:43:57.158Z,86.03
2022-09-14T23:46:25.520Z,85.99
2022-09-14T23:48:53.390Z,86.23
2022-09-14T23:51:21.091Z,86.58
2022-09-14T23:53:50.212Z,87.21
2022-09-14T23:56:18.563Z,87.80
2022-09-14T23:58:46.334Z,87.48
